createdAt,value
2022-11-20T00:00:56.510Z,11.27
2022-11-20T00:03:25.041Z,11.47
2022-11-20T00:05:52.887Z,13.07
2022-11-20T00:08:21.367Z,15.13
2022-11-20T00:10:49.192Z,15.70
2022-11-20T00:13:17.048Z,15.63
2022-11-20T00:15:46.239Z,16.33
2022-11-20T00:18:14.093Z,17.20
2022-11-20T00:20:42.034Z,18.10
2022-11-20T00:23:09.822Z,16.53
2022-11-20T00:25:37.652Z,15.00
2022-11-20T00:28:05.746Z,14.27
2022-11-20T00:30:33.604Z,13.73
2022-11-20T00:33:02.948Z,12.03
2022-11-20T00:35:30.834Z,13.60
2022-11-20T00:37:58.676Z,20.13
2022-11-20T00:40:26.541Z,11.63
2022-11-20T00:42:54.350Z,9.93
2022-11-20T00:45:22.180Z,9.90
2022-11-20T00:47:49.978Z,8.57
2022-11-20T00:50:19.167Z,8.03
2022-11-20T00:52:47.098Z,6.43
2022-11-20T00:55:15.251Z,6.53
2022-11-20T00:57:43.057Z,8.60
2022-11-20T01:00:12.659Z,7.33
2022-11-20T01:02:40.502Z,8.27
2022-11-20T01:05:08.854Z,6.03
2022-11-20T01:07:38.149Z,5.20
2022-11-20T01:10:06.984Z,4.30
2022-11-20T01:12:34.832Z,5.70
2022-11-20T01:15:02.720Z,4.80
2022-11-20T01:17:30.597Z,6.37
2022-11-20T01:19:58.533Z,7.23
2022-11-20T01:22:26.545Z,5.57
2022-11-20T01:24:55.759Z,4.03
2022-11-20T01:27:23.662Z,3.73
2022-11-20T01:29:51.495Z,6.10
2022-11-20T01:32:19.368Z,4.03
2022-11-20T01:34:47.178Z,3.50
2022-11-20T01:37:15.043Z,4.00
2022-11-20T01:39:42.888Z,3.57
2022-11-20T01:42:29.723Z,3.03
2022-11-20T01:44:59.339Z,3.33
2022-11-20T01:47:32.321Z,4.50
2022-11-20T01:50:05.979Z,5.57
2022-11-20T01:52:38.504Z,3.67
2022-11-20T01:55:10.027Z,3.57
2022-11-20T01:57:40.818Z,4.33
2022-11-20T02:00:11.866Z,5.90
2022-11-20T02:02:46.299Z,4.20
2022-11-20T02:05:21.350Z,5.43
2022-11-20T02:07:50.109Z,6.33
2022-11-20T02:10:18.424Z,4.60
2022-11-20T02:13:05.125Z,4.67
2022-11-20T02:15:35.128Z,3.03
2022-11-20T02:18:03.344Z,3.27
2022-11-20T02:20:31.282Z,4.13
2022-11-20T02:23:05.690Z,4.03
2022-11-20T02:25:36.978Z,4.60
2022-11-20T02:28:05.683Z,3.13
2022-11-20T02:30:33.614Z,3.27
2022-11-20T02:33:01.469Z,4.07
2022-11-20T02:35:46.736Z,5.00
2022-11-20T02:38:15.476Z,3.30
2022-11-20T02:40:45.215Z,3.30
2022-11-20T02:43:13.231Z,3.57
2022-11-20T02:45:41.160Z,4.13
2022-11-20T02:48:09.640Z,5.03
2022-11-20T02:50:39.725Z,3.30
2022-11-20T02:53:08.468Z,3.53
2022-11-20T02:55:37.140Z,3.80
2022-11-20T02:58:06.310Z,5.80
2022-11-20T03:00:34.617Z,3.77
2022-11-20T03:03:03.451Z,4.30
2022-11-20T03:05:31.312Z,3.67
2022-11-20T03:07:59.131Z,3.23
2022-11-20T03:10:27.117Z,4.73
2022-11-20T03:12:56.523Z,3.93
2022-11-20T03:15:26.021Z,2.80
2022-11-20T03:17:56.560Z,4.30
2022-11-20T03:20:24.876Z,2.77
2022-11-20T03:22:52.739Z,2.80
2022-11-20T03:25:20.620Z,2.67
2022-11-20T03:27:48.526Z,3.70
2022-11-20T03:30:16.868Z,3.57
2022-11-20T03:32:46.140Z,5.63
2022-11-20T03:35:14.114Z,3.13
2022-11-20T03:37:41.928Z,6.03
2022-11-20T03:40:10.898Z,4.00
2022-11-20T03:42:47.915Z,3.87
2022-11-20T03:45:16.957Z,3.43
2022-11-20T03:47:46.867Z,3.70
2022-11-20T03:50:15.695Z,3.87
2022-11-20T03:52:43.840Z,5.27
2022-11-20T03:55:11.767Z,2.80
2022-11-20T03:57:39.638Z,4.17
2022-11-20T04:00:08.746Z,4.43
2022-11-20T04:02:36.627Z,3.80
2022-11-20T04:05:06.517Z,5.47
2022-11-20T04:07:36.356Z,5.17
2022-11-20T04:10:04.822Z,3.97
2022-11-20T04:12:34.673Z,4.57
2022-11-20T04:15:03.111Z,5.73
2022-11-20T04:17:30.955Z,3.97
2022-11-20T04:19:58.860Z,4.23
2022-11-20T04:22:28.070Z,3.30
2022-11-20T04:24:55.970Z,3.40
2022-11-20T04:27:23.813Z,4.80
2022-11-20T04:29:51.694Z,4.90
2022-11-20T04:32:19.573Z,3.97
2022-11-20T04:34:47.437Z,4.10
2022-11-20T04:37:15.340Z,4.20
2022-11-20T04:39:44.800Z,4.00
2022-11-20T04:42:31.161Z,4.43
2022-11-20T04:44:59.462Z,4.53
2022-11-20T04:47:27.430Z,4.43
2022-11-20T04:49:55.349Z,3.53
2022-11-20T04:52:23.232Z,3.53
2022-11-20T04:54:53.707Z,4.10
2022-11-20T04:57:21.799Z,4.97
2022-11-20T04:59:49.652Z,5.57
2022-11-20T05:02:17.493Z,5.00
2022-11-20T05:04:45.337Z,4.03
2022-11-20T05:07:13.243Z,5.93
2022-11-20T05:09:41.063Z,3.50
2022-11-20T05:12:11.099Z,3.53
2022-11-20T05:14:39.027Z,4.23
2022-11-20T05:17:06.996Z,3.43
2022-11-20T05:19:34.882Z,4.23
2022-11-20T05:22:02.759Z,4.43
2022-11-20T05:24:30.606Z,5.73
2022-11-20T05:26:58.505Z,4.70
2022-11-20T05:29:27.753Z,3.80
2022-11-20T05:31:55.636Z,3.30
2022-11-20T05:34:23.496Z,3.03
2022-11-20T05:36:51.469Z,3.83
2022-11-20T05:39:19.732Z,3.57
2022-11-20T05:42:07.917Z,5.20
2022-11-20T05:44:37.096Z,3.13
2022-11-20T05:47:04.939Z,2.80
2022-11-20T05:49:32.843Z,4.07
2022-11-20T05:52:00.697Z,4.13
2022-11-20T05:54:28.578Z,3.87
2022-11-20T05:56:56.412Z,3.70
2022-11-20T05:59:24.391Z,4.80
2022-11-20T06:01:53.716Z,2.83
2022-11-20T06:04:21.618Z,3.90
2022-11-20T06:06:49.462Z,4.97
2022-11-20T06:09:17.279Z,3.53
2022-11-20T06:11:45.189Z,3.37
2022-11-20T06:14:13.080Z,3.37
2022-11-20T06:16:40.914Z,3.50
2022-11-20T06:19:10.104Z,2.77
2022-11-20T06:21:38.144Z,4.33
2022-11-20T06:24:06.567Z,4.60
2022-11-20T06:26:34.380Z,4.03
2022-11-20T06:29:02.305Z,2.43
2022-11-20T06:31:30.534Z,2.80
2022-11-20T06:33:58.508Z,3.43
2022-11-20T06:36:27.717Z,3.07
2022-11-20T06:38:55.565Z,3.33
2022-11-20T06:41:24.318Z,3.47
2022-11-20T06:43:52.427Z,3.47
2022-11-20T06:46:21.379Z,3.57
2022-11-20T06:48:49.972Z,2.90
2022-11-20T06:51:18.375Z,3.13
2022-11-20T06:53:47.558Z,3.00
2022-11-20T06:56:15.702Z,2.23
2022-11-20T06:58:43.696Z,3.60
2022-11-20T07:01:13.486Z,2.70
2022-11-20T07:03:41.702Z,2.07
2022-11-20T07:06:10.066Z,2.90
2022-11-20T07:08:37.918Z,3.93
2022-11-20T07:11:08.938Z,2.33
2022-11-20T07:13:36.862Z,3.80
2022-11-20T07:16:06.502Z,2.37
2022-11-20T07:18:34.602Z,3.23
2022-11-20T07:21:03.420Z,3.03
2022-11-20T07:23:31.340Z,1.83
2022-11-20T07:25:59.168Z,1.83
2022-11-20T07:28:28.401Z,2.23
2022-11-20T07:30:56.372Z,3.50
2022-11-20T07:33:24.264Z,1.67
2022-11-20T07:35:52.115Z,3.37
2022-11-20T07:38:19.974Z,1.83
2022-11-20T07:40:47.880Z,3.33
2022-11-20T07:43:15.727Z,2.33
2022-11-20T07:45:45.298Z,1.80
2022-11-20T07:48:13.155Z,4.33
2022-11-20T07:50:41.016Z,2.20
2022-11-20T07:53:08.947Z,3.00
2022-11-20T07:55:37.025Z,2.20
2022-11-20T07:58:04.930Z,3.30
2022-11-20T08:00:32.964Z,1.80
2022-11-20T08:03:05.380Z,1.67
2022-11-20T08:05:33.407Z,2.47
2022-11-20T08:08:01.468Z,2.00
2022-11-20T08:10:29.336Z,3.83
2022-11-20T08:13:14.643Z,2.00
2022-11-20T08:15:42.574Z,2.33
2022-11-20T08:18:30.665Z,1.73
2022-11-20T08:20:59.433Z,1.73
2022-11-20T08:23:27.319Z,4.90
2022-11-20T08:25:55.210Z,1.63
2022-11-20T08:28:23.054Z,2.60
2022-11-20T08:30:51.598Z,1.80
2022-11-20T08:33:20.928Z,1.07
2022-11-20T08:35:48.840Z,1.33
2022-11-20T08:38:16.720Z,1.87
2022-11-20T08:41:06.101Z,2.83
2022-11-20T08:43:34.478Z,1.60
2022-11-20T08:46:02.388Z,1.77
2022-11-20T08:48:31.593Z,1.10
2022-11-20T08:51:00.467Z,1.80
2022-11-20T08:53:28.524Z,1.30
2022-11-20T08:55:56.852Z,0.80
2022-11-20T08:58:24.841Z,1.00
2022-11-20T09:00:52.747Z,0.90
2022-11-20T09:03:20.700Z,1.17
2022-11-20T09:05:50.101Z,0.97
2022-11-20T09:08:18.003Z,0.90
2022-11-20T09:10:45.911Z,0.80
2022-11-20T09:13:13.797Z,0.80
2022-11-20T09:15:41.667Z,1.47
2022-11-20T09:18:09.626Z,1.67
2022-11-20T09:20:37.708Z,0.60
2022-11-20T09:23:07.120Z,1.70
2022-11-20T09:25:34.997Z,0.80
2022-11-20T09:28:02.834Z,0.77
2022-11-20T09:30:31.849Z,1.03
2022-11-20T09:33:00.183Z,2.40
2022-11-20T09:35:28.195Z,2.07
2022-11-20T09:37:56.072Z,0.90
2022-11-20T09:40:28.492Z,1.40
2022-11-20T09:43:01.436Z,0.90
2022-11-20T09:45:48.543Z,0.63
2022-11-20T09:48:40.138Z,0.73
2022-11-20T09:51:15.969Z,0.83
2022-11-20T09:53:54.645Z,0.67
2022-11-20T09:56:24.386Z,0.90
2022-11-20T09:58:54.341Z,1.83
2022-11-20T10:01:25.764Z,0.90
2022-11-20T10:03:59.030Z,1.00
2022-11-20T10:06:32.583Z,0.70
2022-11-20T10:09:20.939Z,0.80
2022-11-20T10:11:58.799Z,0.70
2022-11-20T10:14:36.109Z,0.93
2022-11-20T10:17:14.726Z,1.63
2022-11-20T10:20:02.732Z,1.53
2022-11-20T10:22:43.484Z,1.10
2022-11-20T10:25:17.048Z,1.13
2022-11-20T10:28:06.419Z,0.70
2022-11-20T10:30:39.565Z,1.03
2022-11-20T10:33:15.274Z,1.47
2022-11-20T10:35:46.422Z,1.97
2022-11-20T10:38:19.081Z,1.40
2022-11-20T10:40:50.848Z,1.13
2022-11-20T10:43:23.917Z,1.00
2022-11-20T10:45:57.562Z,1.10
2022-11-20T10:48:27.609Z,1.17
2022-11-20T10:51:02.598Z,1.10
2022-11-20T10:53:49.198Z,1.20
2022-11-20T10:56:22.335Z,1.97
2022-11-20T10:59:03.560Z,2.43
2022-11-20T11:01:31.528Z,1.60
2022-11-20T11:04:00.474Z,1.77
2022-11-20T11:06:34.808Z,1.00
2022-11-20T11:09:11.216Z,1.57
2022-11-20T11:11:40.758Z,1.73
2022-11-20T11:14:12.313Z,2.20
2022-11-20T11:16:52.327Z,2.50
2022-11-20T11:19:20.867Z,1.13
2022-11-20T11:21:55.352Z,1.40
2022-11-20T11:24:42.273Z,2.80
2022-11-20T11:27:17.121Z,1.50
2022-11-20T11:29:47.701Z,1.97
2022-11-20T11:32:20.584Z,2.23
2022-11-20T11:35:01.380Z,3.17
2022-11-20T11:37:31.527Z,1.77
2022-11-20T11:40:23.054Z,2.60
2022-11-20T11:42:54.681Z,1.50
2022-11-20T11:45:23.227Z,2.23
2022-11-20T11:47:52.973Z,2.57
2022-11-20T11:50:23.689Z,2.20
2022-11-20T11:52:58.981Z,3.30
2022-11-20T11:55:32.648Z,2.17
2022-11-20T11:58:13.765Z,3.40
2022-11-20T12:00:51.657Z,3.57
2022-11-20T12:03:31.972Z,3.13
2022-11-20T12:06:10.792Z,2.27
2022-11-20T12:08:51.079Z,3.83
2022-11-20T12:11:37.356Z,1.77
2022-11-20T12:14:17.798Z,3.30
2022-11-20T12:16:54.881Z,1.87
2022-11-20T12:19:33.620Z,3.97
2022-11-20T12:22:18.174Z,2.00
2022-11-20T12:24:59.536Z,2.70
2022-11-20T12:27:58.507Z,2.60
2022-11-20T12:30:28.857Z,2.10
2022-11-20T12:33:35.535Z,1.10
2022-11-20T12:36:22.346Z,2.67
2022-11-20T12:39:13.252Z,1.87
2022-11-20T12:42:33.284Z,2.17
2022-11-20T12:45:47.832Z,1.50
2022-11-20T12:48:59.518Z,3.63
2022-11-20T12:52:14.999Z,6.27
2022-11-20T12:55:13.558Z,4.90
2022-11-20T12:57:57.608Z,1.13
2022-11-20T13:00:34.584Z,1.67
2022-11-20T13:03:29.428Z,1.87
2022-11-20T13:06:19.966Z,1.87
2022-11-20T13:09:00.520Z,0.97
2022-11-20T13:11:42.109Z,1.30
2022-11-20T13:14:35.401Z,3.10
2022-11-20T13:17:14.400Z,1.20
2022-11-20T13:19:53.496Z,4.13
2022-11-20T13:22:36.256Z,1.63
2022-11-20T13:25:27.321Z,2.43
2022-11-20T13:28:25.483Z,2.80
2022-11-20T13:30:55.716Z,1.90
2022-11-20T13:33:29.303Z,2.63
2022-11-20T13:35:58.952Z,5.73
2022-11-20T13:38:33.715Z,1.17
2022-11-20T13:41:23.852Z,1.73
2022-11-20T13:43:53.938Z,1.93
2022-11-20T13:46:25.421Z,1.70
2022-11-20T13:48:55.245Z,3.17
2022-11-20T13:51:33.962Z,2.77
2022-11-20T13:54:24.905Z,2.07
2022-11-20T13:57:03.385Z,1.23
2022-11-20T13:59:53.145Z,1.50
2022-11-20T14:02:23.536Z,0.90
2022-11-20T14:04:53.921Z,3.07
2022-11-20T14:07:26.153Z,1.17
2022-11-20T14:09:57.451Z,1.83
2022-11-20T14:12:30.083Z,1.37
2022-11-20T14:14:58.402Z,2.33
2022-11-20T14:17:33.195Z,1.67
2022-11-20T14:20:04.364Z,15.43
2022-11-20T14:22:32.516Z,3.57
2022-11-20T14:25:08.929Z,1.50
2022-11-20T14:27:39.793Z,2.00
2022-11-20T14:30:16.555Z,2.57
2022-11-20T14:32:46.029Z,3.13
2022-11-20T14:35:22.594Z,3.33
2022-11-20T14:37:50.554Z,2.40
2022-11-20T14:40:31.423Z,1.77
2022-11-20T14:43:00.800Z,7.43
2022-11-20T14:45:29.238Z,2.13
2022-11-20T14:47:59.733Z,2.43
2022-11-20T14:50:29.458Z,3.53
2022-11-20T14:52:59.421Z,4.07
2022-11-20T14:55:33.741Z,8.97
2022-11-20T14:58:03.383Z,7.57
2022-11-20T15:00:32.590Z,5.97
2022-11-20T15:03:00.591Z,3.87
2022-11-20T15:05:47.087Z,5.10
2022-11-20T15:08:16.165Z,1.67
2022-11-20T15:10:50.230Z,2.37
2022-11-20T15:13:23.860Z,4.13
2022-11-20T15:15:53.321Z,6.67
2022-11-20T15:18:23.960Z,4.03
2022-11-20T15:20:52.699Z,18.73
2022-11-20T15:23:21.377Z,14.83
2022-11-20T15:25:51.295Z,3.20
2022-11-20T15:28:21.239Z,6.83
2022-11-20T15:30:50.558Z,9.83
2022-11-20T15:33:19.437Z,11.07
2022-11-20T15:35:47.388Z,7.23
2022-11-20T15:38:15.283Z,4.43
2022-11-20T15:40:43.150Z,3.27
2022-11-20T15:43:13.863Z,4.83
2022-11-20T15:45:45.779Z,4.17
2022-11-20T15:48:16.394Z,5.10
2022-11-20T15:50:51.678Z,4.53
2022-11-20T15:53:19.602Z,4.50
2022-11-20T15:55:47.595Z,6.90
2022-11-20T15:58:17.585Z,5.37
2022-11-20T16:00:46.377Z,7.70
2022-11-20T16:03:14.982Z,14.00
2022-11-20T16:05:42.863Z,12.37
2022-11-20T16:08:11.931Z,16.33
2022-11-20T16:10:40.559Z,17.07
2022-11-20T16:13:35.800Z,5.43
2022-11-20T16:16:07.099Z,6.30
2022-11-20T16:18:35.453Z,4.63
2022-11-20T16:21:03.552Z,4.47
2022-11-20T16:23:31.541Z,4.37
2022-11-20T16:25:59.528Z,4.50
2022-11-20T16:28:28.855Z,3.03
2022-11-20T16:30:56.857Z,2.57
2022-11-20T16:33:24.728Z,5.00
2022-11-20T16:35:52.565Z,3.30
2022-11-20T16:38:20.418Z,8.37
2022-11-20T16:40:48.255Z,2.70
2022-11-20T16:43:16.268Z,3.57
2022-11-20T16:45:46.766Z,2.00
2022-11-20T16:48:16.737Z,3.33
2022-11-20T16:50:49.925Z,3.20
2022-11-20T16:53:18.661Z,1.50
2022-11-20T16:55:46.536Z,2.57
2022-11-20T16:58:14.842Z,1.90
2022-11-20T17:00:49.995Z,2.03
2022-11-20T17:03:21.012Z,4.43
2022-11-20T17:05:49.044Z,1.40
2022-11-20T17:08:16.944Z,1.67
2022-11-20T17:10:44.884Z,1.97
2022-11-20T17:13:12.801Z,2.13
2022-11-20T17:15:40.794Z,2.10
2022-11-20T17:18:08.645Z,3.17
2022-11-20T17:20:37.918Z,4.13
2022-11-20T17:23:05.824Z,3.27
2022-11-20T17:25:34.616Z,2.40
2022-11-20T17:28:02.617Z,4.03
2022-11-20T17:30:31.104Z,2.87
2022-11-20T17:32:59.320Z,2.10
2022-11-20T17:35:27.407Z,3.70
2022-11-20T17:37:56.638Z,3.50
2022-11-20T17:40:27.518Z,2.83
2022-11-20T17:42:56.146Z,2.77
2022-11-20T17:45:24.132Z,2.43
2022-11-20T17:47:52.139Z,2.40
2022-11-20T17:50:20.036Z,4.40
2022-11-20T17:52:47.925Z,3.67
2022-11-20T17:55:17.179Z,1.57
2022-11-20T17:57:52.884Z,2.47
2022-11-20T18:00:22.179Z,3.27
2022-11-20T18:02:50.638Z,4.23
2022-11-20T18:05:18.891Z,4.80
2022-11-20T18:07:46.844Z,2.33
2022-11-20T18:10:14.683Z,1.60
2022-11-20T18:12:44.939Z,2.80
2022-11-20T18:15:12.821Z,2.03
2022-11-20T18:17:40.735Z,2.60
2022-11-20T18:22:58.594Z,2.57
2022-11-20T18:25:26.508Z,2.50
2022-11-20T18:27:56.383Z,2.27
2022-11-20T18:30:25.048Z,2.23
2022-11-20T18:32:53.037Z,2.13
2022-11-20T18:35:21.228Z,2.77
2022-11-20T18:37:49.169Z,9.37
2022-11-20T18:40:17.276Z,3.87
2022-11-20T18:43:02.771Z,4.47
2022-11-20T18:45:32.016Z,2.17
2022-11-20T18:47:59.971Z,2.17
2022-11-20T18:50:27.827Z,3.27
2022-11-20T18:52:55.696Z,1.60
2022-11-20T18:55:25.868Z,2.23
2022-11-20T18:57:55.067Z,3.50
2022-11-20T19:00:25.122Z,1.40
2022-11-20T19:02:55.316Z,2.17
2022-11-20T19:05:23.197Z,2.23
2022-11-20T19:07:51.204Z,1.60
2022-11-20T19:10:20.482Z,2.03
2022-11-20T19:12:48.585Z,3.23
2022-11-20T19:15:16.520Z,2.67
2022-11-20T19:17:44.360Z,2.07
2022-11-20T19:20:14.127Z,2.63
2022-11-20T19:22:42.002Z,2.57
2022-11-20T19:25:10.434Z,1.60
2022-11-20T19:27:38.464Z,2.90
2022-11-20T19:30:07.640Z,2.27
2022-11-20T19:32:35.621Z,1.27
2022-11-20T19:35:03.978Z,1.83
2022-11-20T19:37:35.610Z,1.10
2022-11-20T19:40:05.242Z,1.60
2022-11-20T19:42:33.742Z,2.37
2022-11-20T19:45:01.911Z,1.07
2022-11-20T19:47:52.812Z,1.00
2022-11-20T19:50:17.814Z,0.83
2022-11-20T19:52:47.104Z,1.27
2022-11-20T19:55:15.090Z,1.70
2022-11-20T19:57:42.973Z,0.80
2022-11-20T20:00:16.807Z,1.10
2022-11-20T20:02:47.918Z,0.90
2022-11-20T20:05:15.854Z,0.87
2022-11-20T20:07:43.791Z,1.40
2022-11-20T20:10:13.159Z,1.10
2022-11-20T20:12:41.044Z,1.07
2022-11-20T20:15:09.770Z,1.27
2022-11-20T20:17:38.068Z,1.53
2022-11-20T20:20:07.252Z,0.70
2022-11-20T20:22:35.180Z,0.77
2022-11-20T20:25:03.107Z,0.90
2022-11-20T20:27:32.645Z,0.70
2022-11-20T20:30:00.557Z,0.60
2022-11-20T20:32:28.429Z,1.60
2022-11-20T20:34:56.502Z,0.60
2022-11-20T20:37:24.488Z,1.20
2022-11-20T20:39:52.606Z,0.60
2022-11-20T20:42:20.463Z,0.97
2022-11-20T20:45:07.852Z,2.20
2022-11-20T20:47:37.704Z,0.50
2022-11-20T20:50:06.838Z,0.50
2022-11-20T20:52:35.056Z,1.17
2022-11-20T20:55:03.051Z,0.70
2022-11-20T20:57:31.126Z,1.00
2022-11-20T21:00:00.487Z,0.80
2022-11-20T21:02:28.412Z,1.90
2022-11-20T21:04:56.450Z,2.17
2022-11-20T21:07:24.520Z,0.87
2022-11-20T21:09:52.454Z,0.70
2022-11-20T21:12:20.605Z,0.90
2022-11-20T21:14:48.509Z,0.87
2022-11-20T21:17:17.700Z,0.57
2022-11-20T21:19:45.654Z,1.00
2022-11-20T21:22:12.667Z,1.50
2022-11-20T21:24:40.572Z,0.50
2022-11-20T21:27:08.537Z,1.03
2022-11-20T21:29:36.531Z,1.37
2022-11-20T21:32:04.500Z,0.60
2022-11-20T21:34:34.528Z,0.53
2022-11-20T21:37:02.764Z,0.60
2022-11-20T21:39:31.573Z,0.60
2022-11-20T21:42:00.078Z,0.73
2022-11-20T21:44:31.277Z,0.60
2022-11-20T21:47:00.364Z,0.47
2022-11-20T21:49:29.140Z,0.57
2022-11-20T21:51:59.108Z,0.50
2022-11-20T21:54:29.972Z,0.77
2022-11-20T21:56:58.528Z,0.67
2022-11-20T21:59:26.942Z,1.10
2022-11-20T22:01:55.556Z,1.03
2022-11-20T22:04:24.582Z,0.83
2022-11-20T22:06:53.103Z,1.00
2022-11-20T22:09:23.193Z,3.03
2022-11-20T22:11:51.346Z,0.93
2022-11-20T22:14:21.816Z,1.27
2022-11-20T22:16:51.641Z,0.77
2022-11-20T22:19:21.283Z,1.27
2022-11-20T22:21:50.663Z,1.83
2022-11-20T22:24:20.966Z,1.90
2022-11-20T22:26:51.316Z,0.80
2022-11-20T22:29:22.011Z,1.60
2022-11-20T22:31:55.678Z,0.73
2022-11-20T22:34:24.360Z,0.73
2022-11-20T22:36:53.319Z,0.70
2022-11-20T22:39:23.210Z,1.73
2022-11-20T22:41:53.233Z,3.07
2022-11-20T22:44:22.061Z,0.80
2022-11-20T22:46:50.577Z,1.03
2022-11-20T22:49:18.621Z,1.07
2022-11-20T22:51:46.883Z,5.93
2022-11-20T22:54:15.298Z,2.43
2022-11-20T22:56:43.716Z,1.73
2022-11-20T22:59:13.698Z,1.07
2022-11-20T23:01:42.304Z,0.87
2022-11-20T23:04:12.279Z,0.80
2022-11-20T23:06:40.637Z,1.57
2022-11-20T23:09:09.725Z,0.97
2022-11-20T23:11:38.433Z,1.70
2022-11-20T23:14:08.370Z,1.30
2022-11-20T23:16:37.863Z,1.23
2022-11-20T23:19:08.594Z,0.70
2022-11-20T23:21:38.409Z,0.70
2022-11-20T23:24:07.917Z,0.70
2022-11-20T23:26:39.100Z,1.40
2022-11-20T23:29:08.377Z,1.30
2022-11-20T23:31:37.979Z,1.63
2022-11-20T23:34:06.575Z,1.37
2022-11-20T23:36:34.745Z,0.80
2022-11-20T23:39:03.051Z,1.00
2022-11-20T23:41:31.179Z,0.80
2022-11-20T23:43:59.738Z,0.70
2022-11-20T23:46:27.811Z,0.70
2022-11-20T23:48:57.620Z,0.80
2022-11-20T23:51:25.845Z,1.40
2022-11-20T23:53:53.946Z,0.60
2022-11-20T23:56:22.332Z,0.77
2022-11-20T23:58:50.731Z,0.80
